Share

Asau, Samoa

Faleolo International (NSFA) Elev 16 ft | 13.83 °S, 172.01 °W | Change Station

Current weather conditions updated 42 minutes ago

Drizzle
Drizzle
79 °F
Feels Like 79 °F
N
8
Wind Variable Wind from SE
Sunrise 6:37 AM
Sunset 6:21 PM
Moon Waning Gibbous

Tomorrow is forecast to be Cooler than today. Thunderstorms.

Pressure 29.86 in
Visibility 6.2 miles
Clouds Few 1800 ft
Few 2000 ft
Scattered Clouds 3800 ft
Mostly Cloudy 12000 ft
Dew Point 77 °F
Humidity 94%
Rainfall 0.00 in
Snow Depth Not available.
UV 0 out of 16
Pollen Not available.
Air Quality Not available.
Flu Activity Not available.
METAR NSFA 200600Z 14007KT 9999 DZ FEW018CB FEW020 SCT038 BKN120 26/25 Q1011

More Conditions Fewer Conditions

Pressure 29.86 in
Visibility 6.2 miles
Clouds Few 1800 ft
Few 2000 ft
Scattered Clouds 3800 ft
Mostly Cloudy 12000 ft
Dew Point 77 °F
Humidity 94%
Rainfall 0.00 in
Snow Depth Not available.
UV 0 out of 16
Pollen Not available.
Air Quality Not available.
Flu Activity Not available.
METAR NSFA 200600Z 14007KT 9999 DZ FEW018CB FEW020 SCT038 BKN120 26/25 Q1011

More Conditions Fewer Conditions

10-Day Weather Forecast

Almanac

Astronomy

Apr. 20, 2014 Rise Set
Actual Time 6:37 AM WST 6:21 PM WST
Civil Twilight 6:15 AM WST 6:42 PM WST
Nautical Twilight 5:50 AM WST 7:08 PM WST
Astronomical Twilight 5:25 AM WST 7:32 PM WST
Moon 10:39 PM WST 10:47 AM WST
Length of Visible Light 12h 27m
Length of Day
11h 44m
Tomorrow will be 0m 40s shorter.
Waning Gibbous, 73% of the Moon is Illuminated
Today
Waning Gibbous
Apr 22
Last Quarter
Apr 29
New
May 6
First Quarter
May 14
Full

Yesterday's Extremes

Country Highs Country Lows

Community

  • Sunny day at the coast-Cape Arago Lighthouse
    Sunny day at the coast-Cape Arago Lighthouse
  • Cherry Blossoms
    Cherry Blossoms
  • White-Crowned Sparrow
    White-Crowned Sparrow
  • New Day
    New Day
  • Happy Easter!
    Happy Easter!

WunderPhotos

Upload Photos

1,703,085 photos uploaded!

WunderBlogs® & News

Nearby

Snow Depth

Not available.

Coastal Water Temperatures

Place Temperature
No Stations Reporting

Earthquake Activity

City Distance Mag. Time & Date
No recent earthquake activity has been reported nearby.
Minimum magnitude displayed is 2.5.

Nearby Weather Stations

There are no personal weather stations in this area.

What do you think?

We're not finished. Please let us know what you like, what you don't like, and what you are still missing.